sensor_id;sensor_type;location;lat;lon;timestamp;pressure;altitude;pressure_sealevel;temperature;humidity
63115;BME280;49208;50.874;6.466;2022-07-23T00:01:23;100678.56;;;16.51;94.20
63115;BME280;49208;50.874;6.466;2022-07-23T00:03:49;100672.41;;;16.49;93.85
63115;BME280;49208;50.874;6.466;2022-07-23T00:06:15;100673.47;;;16.47;93.63
63115;BME280;49208;50.874;6.466;2022-07-23T00:08:41;100668.16;;;16.45;93.55
63115;BME280;49208;50.874;6.466;2022-07-23T00:11:07;100661.16;;;16.43;93.80
63115;BME280;49208;50.874;6.466;2022-07-23T00:13:32;100662.13;;;16.42;93.88
63115;BME280;49208;50.874;6.466;2022-07-23T00:15:58;100659.50;;;16.40;94.13
63115;BME280;49208;50.874;6.466;2022-07-23T00:18:23;100661.34;;;16.40;94.61
63115;BME280;49208;50.874;6.466;2022-07-23T00:20:49;100673.88;;;16.39;95.03
63115;BME280;49208;50.874;6.466;2022-07-23T00:23:14;100665.03;;;16.37;94.41
63115;BME280;49208;50.874;6.466;2022-07-23T00:25:40;100658.81;;;16.36;94.29
63115;BME280;49208;50.874;6.466;2022-07-23T00:28:05;100658.88;;;16.35;94.50
63115;BME280;49208;50.874;6.466;2022-07-23T00:30:32;100660.63;;;16.36;94.76
63115;BME280;49208;50.874;6.466;2022-07-23T00:33:00;100651.81;;;16.34;95.13
63115;BME280;49208;50.874;6.466;2022-07-23T00:35:27;100641.91;;;16.34;95.63
63115;BME280;49208;50.874;6.466;2022-07-23T00:37:54;100647.28;;;16.34;95.87
63115;BME280;49208;50.874;6.466;2022-07-23T00:40:20;100649.97;;;16.34;96.07
63115;BME280;49208;50.874;6.466;2022-07-23T00:42:46;100656.31;;;16.33;95.91
63115;BME280;49208;50.874;6.466;2022-07-23T00:45:11;100661.56;;;16.35;95.99
63115;BME280;49208;50.874;6.466;2022-07-23T00:47:37;100655.25;;;16.36;95.89
63115;BME280;49208;50.874;6.466;2022-07-23T00:50:03;100660.63;;;16.36;96.07
63115;BME280;49208;50.874;6.466;2022-07-23T00:52:29;100661.50;;;16.36;95.75
63115;BME280;49208;50.874;6.466;2022-07-23T00:54:55;100669.63;;;16.35;95.55
63115;BME280;49208;50.874;6.466;2022-07-23T00:57:21;100662.53;;;16.34;95.90
63115;BME280;49208;50.874;6.466;2022-07-23T00:59:46;100668.78;;;16.34;96.25
63115;BME280;49208;50.874;6.466;2022-07-23T01:02:12;100665.16;;;16.35;96.21
63115;BME280;49208;50.874;6.466;2022-07-23T01:04:38;100659.84;;;16.34;96.31
63115;BME280;49208;50.874;6.466;2022-07-23T01:07:03;100659.00;;;16.33;96.18
63115;BME280;49208;50.874;6.466;2022-07-23T01:09:30;100671.47;;;16.34;96.83
63115;BME280;49208;50.874;6.466;2022-07-23T01:11:56;100674.16;;;16.34;97.45
63115;BME280;49208;50.874;6.466;2022-07-23T01:14:22;100674.34;;;16.31;96.95
63115;BME280;49208;50.874;6.466;2022-07-23T01:16:48;100657.50;;;16.28;97.10
63115;BME280;49208;50.874;6.466;2022-07-23T01:19:15;100656.81;;;16.24;96.70
63115;BME280;49208;50.874;6.466;2022-07-23T01:21:43;100658.97;;;16.17;96.51
63115;BME280;49208;50.874;6.466;2022-07-23T01:24:10;100661.16;;;16.11;96.68
63115;BME280;49208;50.874;6.466;2022-07-23T01:26:36;100662.53;;;16.02;96.23
63115;BME280;49208;50.874;6.466;2022-07-23T01:29:02;100658.41;;;15.95;96.21
63115;BME280;49208;50.874;6.466;2022-07-23T01:31:27;100661.44;;;15.89;96.33
63115;BME280;49208;50.874;6.466;2022-07-23T01:33:53;100661.69;;;15.84;96.40
63115;BME280;49208;50.874;6.466;2022-07-23T01:36:18;100658.47;;;15.78;96.63
63115;BME280;49208;50.874;6.466;2022-07-23T01:38:44;100657.03;;;15.70;96.77
63115;BME280;49208;50.874;6.466;2022-07-23T01:41:09;100655.56;;;15.65;97.38
63115;BME280;49208;50.874;6.466;2022-07-23T01:43:35;100656.75;;;15.59;97.24
63115;BME280;49208;50.874;6.466;2022-07-23T01:46:00;100657.00;;;15.54;97.41
63115;BME280;49208;50.874;6.466;2022-07-23T01:48:25;100651.78;;;15.51;97.62
63115;BME280;49208;50.874;6.466;2022-07-23T01:50:51;100642.00;;;15.50;97.85
63115;BME280;49208;50.874;6.466;2022-07-23T01:53:17;100638.63;;;15.47;97.89
63115;BME280;49208;50.874;6.466;2022-07-23T01:55:42;100639.66;;;15.44;97.83
63115;BME280;49208;50.874;6.466;2022-07-23T01:58:08;100633.56;;;15.41;97.79
63115;BME280;49208;50.874;6.466;2022-07-23T02:00:34;100637.38;;;15.36;97.63
63115;BME280;49208;50.874;6.466;2022-07-23T02:03:00;100632.25;;;15.32;97.89
63115;BME280;49208;50.874;6.466;2022-07-23T02:05:26;100629.81;;;15.27;97.96
63115;BME280;49208;50.874;6.466;2022-07-23T02:07:53;100632.56;;;15.26;98.53
63115;BME280;49208;50.874;6.466;2022-07-23T02:10:20;100630.03;;;15.23;98.57
63115;BME280;49208;50.874;6.466;2022-07-23T02:12:45;100625.63;;;15.22;98.72
63115;BME280;49208;50.874;6.466;2022-07-23T02:15:10;100620.34;;;15.20;98.96
63115;BME280;49208;50.874;6.466;2022-07-23T02:17:36;100614.25;;;15.16;99.09
63115;BME280;49208;50.874;6.466;2022-07-23T02:20:02;100610.97;;;15.11;99.21
63115;BME280;49208;50.874;6.466;2022-07-23T02:22:28;100627.19;;;15.08;99.51
63115;BME280;49208;50.874;6.466;2022-07-23T02:24:53;100622.84;;;15.06;99.47
63115;BME280;49208;50.874;6.466;2022-07-23T02:27:18;100623.09;;;15.01;99.23
63115;BME280;49208;50.874;6.466;2022-07-23T02:29:44;100630.44;;;14.98;99.28
63115;BME280;49208;50.874;6.466;2022-07-23T02:32:09;100620.88;;;14.92;99.02
63115;BME280;49208;50.874;6.466;2022-07-23T02:34:34;100623.72;;;14.89;99.26
63115;BME280;49208;50.874;6.466;2022-07-23T02:37:00;100622.16;;;14.85;99.11
63115;BME280;49208;50.874;6.466;2022-07-23T02:39:25;100628.59;;;14.81;99.37
63115;BME280;49208;50.874;6.466;2022-07-23T02:41:51;100630.50;;;14.79;99.23
63115;BME280;49208;50.874;6.466;2022-07-23T02:44:16;100635.91;;;14.77;99.53
63115;BME280;49208;50.874;6.466;2022-07-23T02:46:42;100629.78;;;14.75;99.81
63115;BME280;49208;50.874;6.466;2022-07-23T02:49:07;100635.22;;;14.73;99.99
63115;BME280;49208;50.874;6.466;2022-07-23T02:51:32;100637.97;;;14.72;100.00
63115;BME280;49208;50.874;6.466;2022-07-23T02:53:58;100637.25;;;14.68;99.74
63115;BME280;49208;50.874;6.466;2022-07-23T02:56:23;100641.88;;;14.65;99.93
63115;BME280;49208;50.874;6.466;2022-07-23T02:58:49;100640.22;;;14.62;99.92
63115;BME280;49208;50.874;6.466;2022-07-23T03:01:14;100638.66;;;14.58;100.00
63115;BME280;49208;50.874;6.466;2022-07-23T03:03:39;100652.09;;;14.57;100.00
63115;BME280;49208;50.874;6.466;2022-07-23T03:06:05;100644.22;;;14.53;100.00
63115;BME280;49208;50.874;6.466;2022-07-23T03:08:30;100645.38;;;14.48;100.00
63115;BME280;49208;50.874;6.466;2022-07-23T03:10:56;100645.66;;;14.42;99.70
63115;BME280;49208;50.874;6.466;2022-07-23T03:13:21;100636.19;;;14.34;99.82
63115;BME280;49208;50.874;6.466;2022-07-23T03:15:47;100631.94;;;14.30;100.00
63115;BME280;49208;50.874;6.466;2022-07-23T03:18:12;100641.00;;;14.28;100.00
63115;BME280;49208;50.874;6.466;2022-07-23T03:20:37;100644.75;;;14.24;99.76
63115;BME280;49208;50.874;6.466;2022-07-23T03:23:03;100645.84;;;14.20;99.99
63115;BME280;49208;50.874;6.466;2022-07-23T03:25:28;100643.28;;;14.17;100.00
63115;BME280;49208;50.874;6.466;2022-07-23T03:27:54;100651.38;;;14.15;100.00
63115;BME280;49208;50.874;6.466;2022-07-23T03:30:19;100647.06;;;14.12;100.00
63115;BME280;49208;50.874;6.466;2022-07-23T03:32:45;100646.25;;;14.10;100.00
63115;BME280;49208;50.874;6.466;2022-07-23T03:35:10;100648.94;;;14.10;100.00
63115;BME280;49208;50.874;6.466;2022-07-23T03:37:36;100645.53;;;14.07;100.00
63115;BME280;49208;50.874;6.466;2022-07-23T03:40:02;100637.59;;;14.05;100.00
63115;BME280;49208;50.874;6.466;2022-07-23T03:42:27;100643.88;;;14.04;100.00
63115;BME280;49208;50.874;6.466;2022-07-23T03:44:52;100652.84;;;14.03;100.00
63115;BME280;49208;50.874;6.466;2022-07-23T03:47:18;100650.25;;;14.02;100.00
63115;BME280;49208;50.874;6.466;2022-07-23T03:49:47;100646.78;;;14.00;100.00
63115;BME280;49208;50.874;6.466;2022-07-23T03:52:12;100642.38;;;13.99;100.00
63115;BME280;49208;50.874;6.466;2022-07-23T03:54:38;100643.28;;;13.98;100.00
63115;BME280;49208;50.874;6.466;2022-07-23T03:57:03;100646.94;;;13.97;100.00
63115;BME280;49208;50.874;6.466;2022-07-23T03:59:28;100647.00;;;13.95;100.00
63115;BME280;49208;50.874;6.466;2022-07-23T04:01:54;100643.44;;;13.94;100.00
63115;BME280;49208;50.874;6.466;2022-07-23T04:04:19;100646.13;;;13.94;100.00
63115;BME280;49208;50.874;6.466;2022-07-23T04:06:45;100645.16;;;13.95;100.00
63115;BME280;49208;50.874;6.466;2022-07-23T04:09:10;100649.50;;;13.98;100.00
63115;BME280;49208;50.874;6.466;2022-07-23T04:11:35;100655.66;;;14.00;100.00
63115;BME280;49208;50.874;6.466;2022-07-23T04:14:01;100654.72;;;14.01;100.00
63115;BME280;49208;50.874;6.466;2022-07-23T04:16:26;100655.53;;;14.03;100.00
63115;BME280;49208;50.874;6.466;2022-07-23T04:18:52;100662.47;;;14.07;100.00
63115;BME280;49208;50.874;6.466;2022-07-23T04:21:17;100662.25;;;14.12;100.00
63115;BME280;49208;50.874;6.466;2022-07-23T04:23:42;100666.53;;;14.16;100.00
63115;BME280;49208;50.874;6.466;2022-07-23T04:26:08;100665.44;;;14.20;100.00
63115;BME280;49208;50.874;6.466;2022-07-23T04:28:33;100666.19;;;14.24;100.00
63115;BME280;49208;50.874;6.466;2022-07-23T04:30:59;100669.66;;;14.26;100.00
63115;BME280;49208;50.874;6.466;2022-07-23T04:33:24;100666.00;;;14.27;100.00
63115;BME280;49208;50.874;6.466;2022-07-23T04:35:50;100678.47;;;14.28;100.00
63115;BME280;49208;50.874;6.466;2022-07-23T04:38:15;100686.34;;;14.31;100.00
63115;BME280;49208;50.874;6.466;2022-07-23T04:40:40;100686.28;;;14.32;100.00
63115;BME280;49208;50.874;6.466;2022-07-23T04:43:06;100692.28;;;14.38;100.00
63115;BME280;49208;50.874;6.466;2022-07-23T04:45:31;100691.19;;;14.42;100.00
63115;BME280;49208;50.874;6.466;2022-07-23T04:47:56;100702.63;;;14.45;100.00
63115;BME280;49208;50.874;6.466;2022-07-23T04:50:22;100710.38;;;14.51;99.88
63115;BME280;49208;50.874;6.466;2022-07-23T04:52:48;100706.66;;;14.55;99.46
63115;BME280;49208;50.874;6.466;2022-07-23T04:55:15;100698.31;;;14.62;99.68
63115;BME280;49208;50.874;6.466;2022-07-23T04:57:40;100709.53;;;14.70;99.55
63115;BME280;49208;50.874;6.466;2022-07-23T05:00:07;100708.06;;;14.82;99.63
63115;BME280;49208;50.874;6.466;2022-07-23T05:02:33;100717.22;;;14.95;99.32
63115;BME280;49208;50.874;6.466;2022-07-23T05:04:59;100715.09;;;15.02;98.56
63115;BME280;49208;50.874;6.466;2022-07-23T05:07:24;100720.97;;;15.10;98.29
63115;BME280;49208;50.874;6.466;2022-07-23T05:09:49;100709.69;;;15.21;98.13
63115;BME280;49208;50.874;6.466;2022-07-23T05:12:15;100715.22;;;15.35;98.05
63115;BME280;49208;50.874;6.466;2022-07-23T05:14:41;100708.97;;;15.52;98.27
63115;BME280;49208;50.874;6.466;2022-07-23T05:17:07;100709.78;;;15.71;98.31
63115;BME280;49208;50.874;6.466;2022-07-23T05:19:33;100709.75;;;15.89;98.04
63115;BME280;49208;50.874;6.466;2022-07-23T05:21:59;100707.13;;;16.05;97.41
63115;BME280;49208;50.874;6.466;2022-07-23T05:24:24;100708.19;;;16.18;97.40
63115;BME280;49208;50.874;6.466;2022-07-23T05:26:50;100707.59;;;16.29;96.89
63115;BME280;49208;50.874;6.466;2022-07-23T05:29:15;100701.78;;;16.36;96.47
63115;BME280;49208;50.874;6.466;2022-07-23T05:31:40;100709.16;;;16.49;96.25
63115;BME280;49208;50.874;6.466;2022-07-23T05:34:06;100710.59;;;16.56;95.45
63115;BME280;49208;50.874;6.466;2022-07-23T05:36:32;100708.81;;;16.55;94.93
63115;BME280;49208;50.874;6.466;2022-07-23T05:38:58;100709.69;;;16.55;95.42
63115;BME280;49208;50.874;6.466;2022-07-23T05:41:23;100715.06;;;16.55;94.80
63115;BME280;49208;50.874;6.466;2022-07-23T05:43:49;100716.56;;;16.61;94.54
63115;BME280;49208;50.874;6.466;2022-07-23T05:46:14;100718.97;;;16.66;94.52
63115;BME280;49208;50.874;6.466;2022-07-23T05:48:40;100720.19;;;16.76;94.87
63115;BME280;49208;50.874;6.466;2022-07-23T05:51:07;100725.59;;;16.92;95.00
63115;BME280;49208;50.874;6.466;2022-07-23T05:53:33;100728.34;;;17.06;94.25
63115;BME280;49208;50.874;6.466;2022-07-23T05:55:59;100731.47;;;17.14;93.57
63115;BME280;49208;50.874;6.466;2022-07-23T05:58:25;100742.44;;;17.26;93.40
63115;BME280;49208;50.874;6.466;2022-07-23T06:00:50;100737.47;;;17.34;92.52
63115;BME280;49208;50.874;6.466;2022-07-23T06:03:15;100744.06;;;17.44;91.93
63115;BME280;49208;50.874;6.466;2022-07-23T06:05:41;100748.09;;;17.51;91.05
63115;BME280;49208;50.874;6.466;2022-07-23T06:08:06;100739.41;;;17.62;90.36
63115;BME280;49208;50.874;6.466;2022-07-23T06:10:32;100741.94;;;17.80;90.63
63115;BME280;49208;50.874;6.466;2022-07-23T06:12:57;100743.69;;;17.95;90.30
63115;BME280;49208;50.874;6.466;2022-07-23T06:15:23;100739.47;;;18.05;90.04
63115;BME280;49208;50.874;6.466;2022-07-23T06:17:48;100746.13;;;18.14;88.74
63115;BME280;49208;50.874;6.466;2022-07-23T06:20:14;100741.53;;;18.30;89.13
63115;BME280;49208;50.874;6.466;2022-07-23T06:22:39;100741.41;;;18.46;87.27
63115;BME280;49208;50.874;6.466;2022-07-23T06:25:05;100745.31;;;18.55;86.59
63115;BME280;49208;50.874;6.466;2022-07-23T06:27:31;100749.94;;;18.53;87.20
63115;BME280;49208;50.874;6.466;2022-07-23T06:29:56;100756.31;;;18.52;87.46
63115;BME280;49208;50.874;6.466;2022-07-23T06:32:22;100748.22;;;18.52;87.47
63115;BME280;49208;50.874;6.466;2022-07-23T06:34:47;100740.81;;;18.55;87.36
63115;BME280;49208;50.874;6.466;2022-07-23T06:37:13;100751.84;;;18.65;87.28
63115;BME280;49208;50.874;6.466;2022-07-23T06:39:38;100753.88;;;18.76;86.88
63115;BME280;49208;50.874;6.466;2022-07-23T06:42:04;100759.56;;;18.86;86.25
63115;BME280;49208;50.874;6.466;2022-07-23T06:44:29;100752.44;;;18.85;85.90
63115;BME280;49208;50.874;6.466;2022-07-23T06:46:55;100759.38;;;18.89;85.69
63115;BME280;49208;50.874;6.466;2022-07-23T06:49:20;100755.88;;;19.01;85.44
63115;BME280;49208;50.874;6.466;2022-07-23T06:51:45;100766.59;;;19.43;84.74
63115;BME280;49208;50.874;6.466;2022-07-23T06:54:11;100767.91;;;20.03;82.57
63115;BME280;49208;50.874;6.466;2022-07-23T06:56:36;100763.88;;;20.47;80.59
63115;BME280;49208;50.874;6.466;2022-07-23T06:59:02;100774.56;;;20.74;79.70
63115;BME280;49208;50.874;6.466;2022-07-23T07:01:28;100769.94;;;21.24;77.02
63115;BME280;49208;50.874;6.466;2022-07-23T07:03:53;100771.78;;;22.18;72.14
63115;BME280;49208;50.874;6.466;2022-07-23T07:06:18;100768.06;;;23.42;67.31
63115;BME280;49208;50.874;6.466;2022-07-23T07:08:44;100764.53;;;24.56;65.74
63115;BME280;49208;50.874;6.466;2022-07-23T07:11:12;100769.47;;;25.61;59.74
63115;BME280;49208;50.874;6.466;2022-07-23T07:13:38;100769.03;;;26.42;57.27
63115;BME280;49208;50.874;6.466;2022-07-23T07:16:04;100775.69;;;27.23;56.48
63115;BME280;49208;50.874;6.466;2022-07-23T07:18:29;100786.38;;;28.06;54.58
63115;BME280;49208;50.874;6.466;2022-07-23T07:20:55;100786.03;;;28.35;52.44
63115;BME280;49208;50.874;6.466;2022-07-23T07:23:21;100776.94;;;28.27;49.69
63115;BME280;49208;50.874;6.466;2022-07-23T07:25:46;100774.31;;;28.51;51.38
63115;BME280;49208;50.874;6.466;2022-07-23T07:28:12;100780.97;;;28.75;49.40
63115;BME280;49208;50.874;6.466;2022-07-23T07:30:38;100780.53;;;28.96;47.77
63115;BME280;49208;50.874;6.466;2022-07-23T07:33:03;100784.25;;;29.46;48.44
63115;BME280;49208;50.874;6.466;2022-07-23T07:35:29;100770.59;;;29.70;45.71
63115;BME280;49208;50.874;6.466;2022-07-23T07:37:56;100775.56;;;29.83;47.97
63115;BME280;49208;50.874;6.466;2022-07-23T07:40:21;100776.22;;;30.01;48.06
63115;BME280;49208;50.874;6.466;2022-07-23T07:42:49;100783.53;;;30.42;45.85
63115;BME280;49208;50.874;6.466;2022-07-23T07:45:14;100788.66;;;30.61;45.48
63115;BME280;49208;50.874;6.466;2022-07-23T07:47:41;100791.06;;;30.48;43.97
63115;BME280;49208;50.874;6.466;2022-07-23T07:50:06;100788.91;;;29.53;44.90
63115;BME280;49208;50.874;6.466;2022-07-23T07:52:33;100791.78;;;28.24;47.33
63115;BME280;49208;50.874;6.466;2022-07-23T07:54:59;100794.31;;;27.91;48.79
63115;BME280;49208;50.874;6.466;2022-07-23T07:57:24;100801.59;;;28.09;49.52
63115;BME280;49208;50.874;6.466;2022-07-23T07:59:49;100803.03;;;28.73;48.92
63115;BME280;49208;50.874;6.466;2022-07-23T08:02:15;100787.13;;;28.77;47.32
63115;BME280;49208;50.874;6.466;2022-07-23T08:04:40;100796.69;;;28.73;48.19
63115;BME280;49208;50.874;6.466;2022-07-23T08:07:05;100799.47;;;28.81;48.93
63115;BME280;49208;50.874;6.466;2022-07-23T08:09:31;100800.63;;;28.70;47.53
63115;BME280;49208;50.874;6.466;2022-07-23T08:11:56;100809.00;;;28.69;47.96
63115;BME280;49208;50.874;6.466;2022-07-23T08:14:21;100809.38;;;28.48;47.75
63115;BME280;49208;50.874;6.466;2022-07-23T08:16:47;100803.78;;;28.84;49.35
63115;BME280;49208;50.874;6.466;2022-07-23T08:19:12;100805.88;;;28.64;48.25
63115;BME280;49208;50.874;6.466;2022-07-23T08:21:38;100805.97;;;28.01;49.31
63115;BME280;49208;50.874;6.466;2022-07-23T08:24:03;100810.78;;;27.99;49.27
63115;BME280;49208;50.874;6.466;2022-07-23T08:26:28;100811.63;;;27.28;50.08
63115;BME280;49208;50.874;6.466;2022-07-23T08:28:54;100813.59;;;27.08;52.33
63115;BME280;49208;50.874;6.466;2022-07-23T08:31:19;100816.41;;;26.89;50.96
63115;BME280;49208;50.874;6.466;2022-07-23T08:33:44;100824.72;;;26.69;51.97
63115;BME280;49208;50.874;6.466;2022-07-23T08:36:10;100817.09;;;26.16;53.74
63115;BME280;49208;50.874;6.466;2022-07-23T08:38:35;100811.38;;;25.51;54.75
63115;BME280;49208;50.874;6.466;2022-07-23T08:41:01;100810.94;;;25.55;56.94
63115;BME280;49208;50.874;6.466;2022-07-23T08:43:29;100809.09;;;25.75;56.10
63115;BME280;49208;50.874;6.466;2022-07-23T08:45:58;100808.50;;;26.11;54.96
63115;BME280;49208;50.874;6.466;2022-07-23T08:48:32;100802.59;;;26.06;52.52
63115;BME280;49208;50.874;6.466;2022-07-23T08:51:00;100798.75;;;25.69;51.32
63115;BME280;49208;50.874;6.466;2022-07-23T08:53:26;100811.06;;;25.54;53.29
63115;BME280;49208;50.874;6.466;2022-07-23T08:55:54;100815.94;;;25.60;53.02
63115;BME280;49208;50.874;6.466;2022-07-23T08:58:20;100816.81;;;25.90;56.00
63115;BME280;49208;50.874;6.466;2022-07-23T09:00:47;100825.22;;;26.35;54.61
63115;BME280;49208;50.874;6.466;2022-07-23T09:03:17;100832.09;;;26.59;52.30
63115;BME280;49208;50.874;6.466;2022-07-23T09:05:43;100836.38;;;26.61;53.41
63115;BME280;49208;50.874;6.466;2022-07-23T09:10:48;100822.31;;;26.94;51.97
63115;BME280;49208;50.874;6.466;2022-07-23T09:13:49;100833.22;;;27.21;51.71
63115;BME280;49208;50.874;6.466;2022-07-23T09:16:24;100821.88;;;27.44;48.80
63115;BME280;49208;50.874;6.466;2022-07-23T09:18:52;100832.28;;;27.58;49.49
63115;BME280;49208;50.874;6.466;2022-07-23T09:21:26;100828.34;;;27.61;50.31
63115;BME280;49208;50.874;6.466;2022-07-23T09:26:38;100826.50;;;27.44;45.87
63115;BME280;49208;50.874;6.466;2022-07-23T09:29:13;100828.00;;;27.28;48.33
63115;BME280;49208;50.874;6.466;2022-07-23T09:31:57;100832.91;;;27.25;48.06
63115;BME280;49208;50.874;6.466;2022-07-23T09:34:34;100833.44;;;27.10;50.10
63115;BME280;49208;50.874;6.466;2022-07-23T09:37:09;100827.75;;;27.21;49.47
63115;BME280;49208;50.874;6.466;2022-07-23T09:39:35;100828.44;;;27.33;48.50
63115;BME280;49208;50.874;6.466;2022-07-23T09:42:33;100831.66;;;27.19;46.81
63115;BME280;49208;50.874;6.466;2022-07-23T09:44:59;100829.69;;;27.11;49.55
63115;BME280;49208;50.874;6.466;2022-07-23T09:47:27;100827.88;;;27.20;49.65
63115;BME280;49208;50.874;6.466;2022-07-23T09:50:04;100824.47;;;27.46;47.47
63115;BME280;49208;50.874;6.466;2022-07-23T09:52:51;100822.19;;;27.59;45.82
63115;BME280;49208;50.874;6.466;2022-07-23T09:55:18;100821.53;;;27.01;44.25
63115;BME280;49208;50.874;6.466;2022-07-23T09:57:45;100829.78;;;26.54;46.55
63115;BME280;49208;50.874;6.466;2022-07-23T10:00:11;100829.22;;;26.88;49.30
63115;BME280;49208;50.874;6.466;2022-07-23T10:02:37;100825.28;;;27.00;45.99
63115;BME280;49208;50.874;6.466;2022-07-23T10:05:04;100817.66;;;27.22;46.54
63115;BME280;49208;50.874;6.466;2022-07-23T10:07:34;100819.06;;;27.36;45.70
63115;BME280;49208;50.874;6.466;2022-07-23T10:10:04;100819.00;;;27.46;45.52
63115;BME280;49208;50.874;6.466;2022-07-23T10:12:29;100815.63;;;27.52;46.17
63115;BME280;49208;50.874;6.466;2022-07-23T10:15:05;100808.50;;;27.59;45.67
63115;BME280;49208;50.874;6.466;2022-07-23T10:17:34;100805.06;;;27.57;44.73
63115;BME280;49208;50.874;6.466;2022-07-23T10:20:00;100807.75;;;27.67;43.48
63115;BME280;49208;50.874;6.466;2022-07-23T10:22:49;100798.44;;;27.59;47.02
63115;BME280;49208;50.874;6.466;2022-07-23T10:25:26;100798.13;;;27.63;45.77
63115;BME280;49208;50.874;6.466;2022-07-23T10:31:12;100794.75;;;27.87;44.76
63115;BME280;49208;50.874;6.466;2022-07-23T10:36:44;100797.41;;;27.96;44.84
63115;BME280;49208;50.874;6.466;2022-07-23T10:39:24;100803.66;;;27.53;46.20
63115;BME280;49208;50.874;6.466;2022-07-23T10:41:50;100805.56;;;27.07;47.51
63115;BME280;49208;50.874;6.466;2022-07-23T10:44:18;100812.28;;;26.85;46.40
63115;BME280;49208;50.874;6.466;2022-07-23T10:47:02;100805.91;;;26.56;46.09
63115;BME280;49208;50.874;6.466;2022-07-23T10:49:32;100807.13;;;26.34;46.95
63115;BME280;49208;50.874;6.466;2022-07-23T10:54:42;100809.22;;;26.60;47.79
63115;BME280;49208;50.874;6.466;2022-07-23T10:57:09;100802.03;;;26.69;47.63
63115;BME280;49208;50.874;6.466;2022-07-23T11:02:36;100800.38;;;27.04;44.39
63115;BME280;49208;50.874;6.466;2022-07-23T11:07:34;100796.31;;;26.90;42.75
63115;BME280;49208;50.874;6.466;2022-07-23T11:10:00;100792.94;;;26.68;44.17
63115;BME280;49208;50.874;6.466;2022-07-23T11:17:27;100791.63;;;26.72;44.46
63115;BME280;49208;50.874;6.466;2022-07-23T11:25:32;100803.84;;;26.78;44.08
63115;BME280;49208;50.874;6.466;2022-07-23T11:28:17;100792.53;;;26.91;45.85
63115;BME280;49208;50.874;6.466;2022-07-23T11:30:46;100797.75;;;27.12;45.05
63115;BME280;49208;50.874;6.466;2022-07-23T11:35:43;100788.91;;;27.46;43.59
63115;BME280;49208;50.874;6.466;2022-07-23T11:38:18;100792.28;;;27.39;41.46
63115;BME280;49208;50.874;6.466;2022-07-23T11:40:48;100786.66;;;27.13;40.11
63115;BME280;49208;50.874;6.466;2022-07-23T11:43:14;100797.94;;;26.73;42.74
63115;BME280;49208;50.874;6.466;2022-07-23T11:45:42;100793.03;;;26.39;43.95
63115;BME280;49208;50.874;6.466;2022-07-23T11:48:17;100798.88;;;26.07;45.27
63115;BME280;49208;50.874;6.466;2022-07-23T11:50:43;100798.56;;;26.00;44.56
63115;BME280;49208;50.874;6.466;2022-07-23T11:53:08;100797.25;;;26.24;45.50
63115;BME280;49208;50.874;6.466;2022-07-23T11:55:34;100796.84;;;26.66;43.89
63115;BME280;49208;50.874;6.466;2022-07-23T11:58:00;100793.34;;;27.01;42.49
63115;BME280;49208;50.874;6.466;2022-07-23T12:00:28;100790.47;;;27.20;39.86
63115;BME280;49208;50.874;6.466;2022-07-23T12:03:01;100791.88;;;27.34;39.96
63115;BME280;49208;50.874;6.466;2022-07-23T12:05:32;100793.16;;;27.12;40.33
63115;BME280;49208;50.874;6.466;2022-07-23T12:07:58;100791.53;;;26.92;41.58
63115;BME280;49208;50.874;6.466;2022-07-23T12:10:33;100795.84;;;26.94;41.60
63115;BME280;49208;50.874;6.466;2022-07-23T12:13:04;100791.88;;;27.07;41.55
63115;BME280;49208;50.874;6.466;2022-07-23T12:15:35;100794.06;;;27.03;41.20
63115;BME280;49208;50.874;6.466;2022-07-23T12:18:04;100788.84;;;27.10;41.46
63115;BME280;49208;50.874;6.466;2022-07-23T12:20:32;100790.31;;;27.32;40.76
63115;BME280;49208;50.874;6.466;2022-07-23T12:23:01;100786.63;;;27.59;42.58
63115;BME280;49208;50.874;6.466;2022-07-23T12:25:29;100784.69;;;27.69;42.06
63115;BME280;49208;50.874;6.466;2022-07-23T12:28:18;100784.81;;;27.86;39.59
63115;BME280;49208;50.874;6.466;2022-07-23T12:30:50;100790.53;;;27.56;39.91
63115;BME280;49208;50.874;6.466;2022-07-23T12:33:28;100791.81;;;27.16;41.29
63115;BME280;49208;50.874;6.466;2022-07-23T12:35:55;100789.44;;;26.86;41.42
63115;BME280;49208;50.874;6.466;2022-07-23T12:38:22;100785.66;;;26.87;42.29
63115;BME280;49208;50.874;6.466;2022-07-23T12:40:58;100782.84;;;27.06;39.79
63115;BME280;49208;50.874;6.466;2022-07-23T12:43:38;100778.84;;;27.18;39.90
63115;BME280;49208;50.874;6.466;2022-07-23T12:51:32;100782.88;;;27.60;39.24
63115;BME280;49208;50.874;6.466;2022-07-23T12:56:31;100783.34;;;27.55;39.66
63115;BME280;49208;50.874;6.466;2022-07-23T13:01:30;100785.28;;;27.81;38.54
63115;BME280;49208;50.874;6.466;2022-07-23T13:04:12;100788.00;;;27.99;39.31
63115;BME280;49208;50.874;6.466;2022-07-23T13:06:42;100790.03;;;27.97;38.50
63115;BME280;49208;50.874;6.466;2022-07-23T13:09:10;100784.09;;;28.01;38.82
63115;BME280;49208;50.874;6.466;2022-07-23T13:11:37;100788.78;;;28.09;40.30
63115;BME280;49208;50.874;6.466;2022-07-23T13:14:03;100786.63;;;28.21;39.75
63115;BME280;49208;50.874;6.466;2022-07-23T13:16:30;100784.25;;;28.26;39.33
63115;BME280;49208;50.874;6.466;2022-07-23T13:18:56;100784.81;;;28.30;37.38
63115;BME280;49208;50.874;6.466;2022-07-23T13:21:23;100779.16;;;28.31;38.19
63115;BME280;49208;50.874;6.466;2022-07-23T13:23:48;100781.84;;;28.23;36.77
63115;BME280;49208;50.874;6.466;2022-07-23T13:26:14;100787.00;;;28.26;36.92
63115;BME280;49208;50.874;6.466;2022-07-23T13:28:40;100782.38;;;28.00;36.36
63115;BME280;49208;50.874;6.466;2022-07-23T13:31:06;100780.91;;;28.06;37.87